createdAt,value
2018-08-30T00:01:54.765Z,9.93
2018-08-30T00:04:59.662Z,9.87
2018-08-30T00:08:04.702Z,8.23
2018-08-30T00:11:09.700Z,8.80
2018-08-30T00:14:14.618Z,9.00
2018-08-30T00:17:19.335Z,8.20
2018-08-30T00:20:24.240Z,6.70
2018-08-30T00:23:29.050Z,7.23
2018-08-30T00:26:33.840Z,7.77
2018-08-30T00:29:38.712Z,5.13
2018-08-30T00:32:43.591Z,6.50
2018-08-30T00:35:48.385Z,5.13
2018-08-30T00:38:53.237Z,4.73
2018-08-30T00:41:57.990Z,5.27
2018-08-30T00:45:02.931Z,5.23
2018-08-30T00:48:07.836Z,5.30
2018-08-30T00:51:12.726Z,4.90
2018-08-30T00:54:17.600Z,7.63
2018-08-30T00:57:22.398Z,7.27
2018-08-30T01:00:27.233Z,6.27
2018-08-30T01:03:32.065Z,7.67
2018-08-30T01:06:36.806Z,7.40
2018-08-30T01:09:41.762Z,7.10
2018-08-30T01:12:52.323Z,9.13
2018-08-30T01:15:57.126Z,8.37
2018-08-30T01:19:01.976Z,8.87
2018-08-30T01:22:06.848Z,7.70
2018-08-30T01:25:11.643Z,7.00
2018-08-30T01:28:16.418Z,7.37
2018-08-30T01:31:21.212Z,7.67
2018-08-30T01:34:26.220Z,9.07
2018-08-30T01:37:30.988Z,8.67
2018-08-30T01:40:35.905Z,10.80
2018-08-30T01:43:40.729Z,9.83
2018-08-30T01:46:45.522Z,11.03
2018-08-30T01:49:50.367Z,9.57
2018-08-30T01:52:55.173Z,10.50
2018-08-30T01:56:00.090Z,15.03
2018-08-30T01:59:04.885Z,12.90
2018-08-30T02:02:09.680Z,13.50
2018-08-30T02:05:14.500Z,18.00
2018-08-30T02:08:19.263Z,15.30
2018-08-30T02:11:24.026Z,17.93
2018-08-30T02:14:28.985Z,16.70
2018-08-30T02:17:33.850Z,18.40
2018-08-30T02:20:38.811Z,17.53
2018-08-30T02:23:43.722Z,19.27
2018-08-30T02:26:48.531Z,18.17
2018-08-30T02:29:53.403Z,19.47
2018-08-30T02:32:58.229Z,19.23
2018-08-30T02:36:03.015Z,18.60
2018-08-30T02:39:09.240Z,17.73
2018-08-30T02:42:14.128Z,15.73
2018-08-30T02:45:18.874Z,13.63
2018-08-30T02:48:23.610Z,14.70
2018-08-30T02:51:28.487Z,12.07
2018-08-30T02:54:33.433Z,12.30
2018-08-30T02:57:38.387Z,12.83
2018-08-30T03:00:43.173Z,11.43
2018-08-30T03:03:48.012Z,11.27
2018-08-30T03:06:52.841Z,9.97
2018-08-30T03:09:57.959Z,9.53
2018-08-30T03:13:02.690Z,9.83
2018-08-30T03:16:07.496Z,9.63
2018-08-30T03:19:12.455Z,11.30
2018-08-30T03:22:17.215Z,9.13
2018-08-30T03:25:22.153Z,9.33
2018-08-30T03:28:26.958Z,10.50
2018-08-30T03:31:31.694Z,9.23
2018-08-30T03:34:36.534Z,8.07
2018-08-30T03:37:41.301Z,8.30
2018-08-30T03:40:46.121Z,8.10
2018-08-30T03:43:50.901Z,7.30
2018-08-30T03:46:55.700Z,8.13
2018-08-30T03:50:00.469Z,7.40
2018-08-30T03:53:05.623Z,6.63
2018-08-30T03:56:10.773Z,6.03
2018-08-30T03:59:15.961Z,6.03
2018-08-30T04:02:20.778Z,5.23
2018-08-30T04:05:25.644Z,5.67
2018-08-30T04:08:30.382Z,6.07
2018-08-30T04:11:35.152Z,4.80
2018-08-30T04:14:39.949Z,4.27
2018-08-30T04:17:44.769Z,4.17
2018-08-30T04:20:49.521Z,4.13
2018-08-30T04:23:54.379Z,4.20
2018-08-30T04:26:59.169Z,3.87
2018-08-30T04:30:04.113Z,3.87
2018-08-30T04:33:08.901Z,3.80
2018-08-30T04:36:13.743Z,3.63
2018-08-30T04:39:18.555Z,4.23
2018-08-30T04:42:23.437Z,5.03
2018-08-30T04:45:28.302Z,3.17
2018-08-30T04:48:33.046Z,4.17
2018-08-30T04:51:38.009Z,3.07
2018-08-30T04:54:42.775Z,2.90
2018-08-30T04:57:47.583Z,3.10
2018-08-30T05:00:52.407Z,3.50
2018-08-30T05:03:57.298Z,3.03
2018-08-30T05:07:02.109Z,2.90
2018-08-30T05:10:07.382Z,3.23
2018-08-30T05:13:12.218Z,2.47
2018-08-30T05:16:17.088Z,4.27
2018-08-30T05:19:21.930Z,2.70
2018-08-30T05:22:26.786Z,2.30
2018-08-30T05:25:31.568Z,2.43
2018-08-30T05:28:36.417Z,2.40
2018-08-30T05:31:41.191Z,4.00
2018-08-30T05:34:46.222Z,1.90
2018-08-30T05:37:51.070Z,2.20
2018-08-30T05:40:56.184Z,2.30
2018-08-30T05:44:01.000Z,2.23
2018-08-30T05:47:05.847Z,2.57
2018-08-30T05:50:10.738Z,3.10
2018-08-30T05:53:15.623Z,2.03
2018-08-30T05:56:20.567Z,1.87
2018-08-30T05:59:25.264Z,2.90
2018-08-30T06:02:30.550Z,2.57
2018-08-30T06:05:35.308Z,2.37
2018-08-30T06:08:40.081Z,2.10
2018-08-30T06:11:44.838Z,2.57
2018-08-30T06:14:49.704Z,1.73
2018-08-30T06:17:54.814Z,2.07
2018-08-30T06:20:59.568Z,2.63
2018-08-30T06:24:04.466Z,1.90
2018-08-30T06:27:09.279Z,1.43
2018-08-30T06:30:14.339Z,1.43
2018-08-30T06:33:19.165Z,3.67
2018-08-30T06:36:23.921Z,1.53
2018-08-30T06:39:28.701Z,1.73
2018-08-30T06:42:33.546Z,1.60
2018-08-30T06:45:38.451Z,2.13
2018-08-30T06:48:43.401Z,1.43
2018-08-30T06:51:48.235Z,3.43
2018-08-30T06:54:53.092Z,2.10
2018-08-30T06:57:57.813Z,2.50
2018-08-30T07:01:02.632Z,2.10
2018-08-30T07:04:08.659Z,2.83
2018-08-30T07:07:13.779Z,2.97
2018-08-30T07:10:18.730Z,3.33
2018-08-30T07:13:23.596Z,4.20
2018-08-30T07:16:28.696Z,4.50
2018-08-30T07:19:34.652Z,4.43
2018-08-30T07:22:39.510Z,4.87
2018-08-30T07:25:45.255Z,4.80
2018-08-30T07:28:50.607Z,6.57
2018-08-30T07:31:55.509Z,6.87
2018-08-30T07:35:00.607Z,7.97
2018-08-30T07:38:05.299Z,9.07
2018-08-30T07:41:10.191Z,6.67
2018-08-30T07:44:15.029Z,7.37
2018-08-30T07:47:19.944Z,7.00
2018-08-30T07:50:24.612Z,9.50
2018-08-30T07:53:29.409Z,7.33
2018-08-30T07:56:34.546Z,7.47
2018-08-30T07:59:39.348Z,7.23
2018-08-30T08:02:44.436Z,9.43
2018-08-30T08:05:49.304Z,8.80
2018-08-30T08:08:54.081Z,9.87
2018-08-30T08:11:59.015Z,11.70
2018-08-30T08:15:03.810Z,10.23
2018-08-30T08:18:08.711Z,10.33
2018-08-30T08:21:13.574Z,9.40
2018-08-30T08:24:18.492Z,10.37
2018-08-30T08:27:23.279Z,10.83
2018-08-30T08:30:28.201Z,10.00
2018-08-30T08:33:32.924Z,11.50
2018-08-30T08:36:37.745Z,13.80
2018-08-30T08:39:42.613Z,11.50
2018-08-30T08:42:48.154Z,10.57
2018-08-30T08:45:53.055Z,9.93
2018-08-30T08:48:57.784Z,11.03
2018-08-30T08:52:02.715Z,10.77
2018-08-30T08:55:07.591Z,10.93
2018-08-30T08:58:12.558Z,10.40
2018-08-30T09:01:17.430Z,10.73
2018-08-30T09:04:22.241Z,10.77
2018-08-30T09:07:27.030Z,10.90
2018-08-30T09:10:31.889Z,10.40
2018-08-30T09:13:36.827Z,10.33
2018-08-30T09:16:41.675Z,12.60
2018-08-30T09:19:46.736Z,12.43
2018-08-30T09:22:51.488Z,10.80
2018-08-30T09:25:56.498Z,11.27
2018-08-30T09:29:01.456Z,11.27
2018-08-30T09:32:06.971Z,11.23
2018-08-30T09:35:11.882Z,11.70
2018-08-30T09:38:16.833Z,11.63
2018-08-30T09:41:21.758Z,11.43
2018-08-30T09:44:26.593Z,10.27
2018-08-30T09:47:31.463Z,12.23
2018-08-30T09:50:36.297Z,9.80
2018-08-30T09:53:41.251Z,10.50
2018-08-30T09:56:46.198Z,10.90
2018-08-30T09:59:50.827Z,10.97
2018-08-30T10:02:55.654Z,9.30
2018-08-30T10:06:00.467Z,9.60
2018-08-30T10:09:07.934Z,9.83
2018-08-30T10:12:12.754Z,9.60
2018-08-30T10:15:17.568Z,9.53
2018-08-30T10:18:22.899Z,8.90
2018-08-30T10:21:28.045Z,8.73
2018-08-30T10:24:32.833Z,8.47
2018-08-30T10:27:37.751Z,7.83
2018-08-30T10:30:42.536Z,9.03
2018-08-30T10:33:47.336Z,8.63
2018-08-30T10:36:52.250Z,11.13
2018-08-30T10:39:56.957Z,8.80
2018-08-30T10:43:01.887Z,9.17
2018-08-30T10:46:06.725Z,9.90
2018-08-30T10:49:11.534Z,9.80
2018-08-30T10:52:16.380Z,10.10
2018-08-30T10:55:21.234Z,9.10
2018-08-30T10:58:26.159Z,10.10
2018-08-30T11:01:31.034Z,9.17
2018-08-30T11:04:36.301Z,11.07
2018-08-30T11:07:41.539Z,10.87
2018-08-30T11:10:46.368Z,15.23
2018-08-30T11:13:51.202Z,54.87
2018-08-30T11:16:56.081Z,9.90
2018-08-30T11:20:01.211Z,9.70
2018-08-30T11:23:06.077Z,10.63
2018-08-30T11:26:11.105Z,16.10
2018-08-30T11:29:15.949Z,10.67
2018-08-30T11:32:20.825Z,10.30
2018-08-30T11:35:25.686Z,12.07
2018-08-30T11:38:30.669Z,16.03
2018-08-30T11:41:35.568Z,11.53
2018-08-30T11:44:40.332Z,15.67
2018-08-30T11:47:45.124Z,11.07
2018-08-30T11:50:49.951Z,11.10
2018-08-30T11:53:55.454Z,17.33
2018-08-30T11:57:00.346Z,11.90
2018-08-30T12:00:05.535Z,10.80
2018-08-30T12:03:10.597Z,10.07
2018-08-30T12:06:15.531Z,13.30
2018-08-30T12:09:20.416Z,12.00
2018-08-30T12:12:25.342Z,10.70
2018-08-30T12:15:30.265Z,12.07
2018-08-30T12:18:35.285Z,12.17
2018-08-30T12:21:40.278Z,13.43
2018-08-30T12:24:45.345Z,12.73
2018-08-30T12:27:50.210Z,13.93
2018-08-30T12:30:55.056Z,10.47
2018-08-30T12:34:00.043Z,10.57
2018-08-30T12:37:04.787Z,10.83
2018-08-30T12:40:09.659Z,11.70
2018-08-30T12:43:15.871Z,12.33
2018-08-30T12:46:20.805Z,10.13
2018-08-30T12:49:26.532Z,11.20
2018-08-30T12:52:31.411Z,10.57
2018-08-30T12:55:36.456Z,12.03
2018-08-30T12:58:41.418Z,10.67
2018-08-30T13:01:47.820Z,10.60
2018-08-30T13:04:52.664Z,11.17
2018-08-30T13:07:57.623Z,11.70
2018-08-30T13:11:02.574Z,10.67
2018-08-30T13:14:07.300Z,10.60
2018-08-30T13:17:12.223Z,10.37
2018-08-30T13:20:16.966Z,10.00
2018-08-30T13:23:21.927Z,10.43
2018-08-30T13:26:26.671Z,10.43
2018-08-30T13:29:31.512Z,8.73
2018-08-30T13:32:36.688Z,9.47
2018-08-30T13:35:41.423Z,8.20
2018-08-30T13:38:46.344Z,8.50
2018-08-30T13:41:51.339Z,8.73
2018-08-30T13:44:56.141Z,8.67
2018-08-30T13:48:00.888Z,10.17
2018-08-30T13:51:05.943Z,8.30
2018-08-30T13:54:10.803Z,8.77
2018-08-30T13:57:15.757Z,8.73
2018-08-30T14:00:20.852Z,8.23
2018-08-30T14:03:25.411Z,8.50
2018-08-30T14:06:30.028Z,9.30
2018-08-30T14:09:34.833Z,9.60
2018-08-30T14:12:39.604Z,9.80
2018-08-30T14:15:44.147Z,9.50
2018-08-30T14:18:49.561Z,10.13
2018-08-30T14:21:54.214Z,8.23
2018-08-30T14:24:59.062Z,12.53
2018-08-30T14:28:03.759Z,7.77
2018-08-30T14:31:09.021Z,8.80
2018-08-30T14:34:14.930Z,8.93
2018-08-30T14:37:19.775Z,11.43
2018-08-30T14:40:24.725Z,9.70
2018-08-30T14:43:30.408Z,9.70
2018-08-30T14:46:35.385Z,9.80
2018-08-30T14:49:40.385Z,9.40
2018-08-30T14:52:45.402Z,10.60
2018-08-30T14:55:50.297Z,9.57
2018-08-30T14:58:55.134Z,9.83
2018-08-30T15:02:00.413Z,10.50
2018-08-30T15:05:05.496Z,10.20
2018-08-30T15:08:10.591Z,11.43
2018-08-30T15:11:15.490Z,9.80
2018-08-30T15:14:20.309Z,11.73
2018-08-30T15:17:25.278Z,12.90
2018-08-30T15:20:30.228Z,10.17
2018-08-30T15:23:35.533Z,11.17
2018-08-30T15:26:40.347Z,10.30
2018-08-30T15:29:45.422Z,9.87
2018-08-30T15:32:50.344Z,10.70
2018-08-30T15:35:55.288Z,9.90
2018-08-30T15:39:00.322Z,10.20
2018-08-30T15:42:05.319Z,10.30
2018-08-30T15:45:10.512Z,12.37
2018-08-30T15:48:15.485Z,11.80
2018-08-30T15:51:20.604Z,10.60
2018-08-30T15:54:25.494Z,10.57
2018-08-30T15:57:30.513Z,11.83
2018-08-30T16:00:35.426Z,9.83
2018-08-30T16:03:40.386Z,10.60
2018-08-30T16:06:45.374Z,8.87
2018-08-30T16:09:50.190Z,8.87
2018-08-30T16:12:55.794Z,8.53
2018-08-30T16:16:01.277Z,10.03
2018-08-30T16:19:06.246Z,9.20
2018-08-30T16:22:11.198Z,7.43
2018-08-30T16:25:16.523Z,8.17
2018-08-30T16:28:21.746Z,8.13
2018-08-30T16:31:26.844Z,8.40
2018-08-30T16:34:31.608Z,7.40
2018-08-30T16:37:36.627Z,8.77
2018-08-30T16:40:41.618Z,6.93
2018-08-30T16:43:46.597Z,6.53
2018-08-30T16:46:52.433Z,7.33
2018-08-30T16:50:19.655Z,7.10
2018-08-30T16:53:58.297Z,7.00
2018-08-30T16:57:15.747Z,6.60
2018-08-30T17:00:22.350Z,8.20
2018-08-30T17:03:28.620Z,7.63
2018-08-30T17:06:33.679Z,8.43
2018-08-30T17:09:46.193Z,10.37
2018-08-30T17:12:51.175Z,9.17
2018-08-30T17:15:56.120Z,7.30
2018-08-30T17:19:25.894Z,7.90
2018-08-30T17:22:30.966Z,9.00
2018-08-30T17:25:35.896Z,8.63
2018-08-30T17:28:40.915Z,8.63
2018-08-30T17:31:45.841Z,10.03
2018-08-30T17:34:50.723Z,8.70
2018-08-30T17:37:55.856Z,8.80
2018-08-30T17:41:00.874Z,9.07
2018-08-30T17:44:06.698Z,8.53
2018-08-30T17:47:12.128Z,7.80
2018-08-30T17:50:17.611Z,8.70
2018-08-30T17:53:22.632Z,7.27
2018-08-30T17:56:28.127Z,9.37
2018-08-30T17:59:33.128Z,9.17
2018-08-30T18:02:38.117Z,8.13
2018-08-30T18:05:43.036Z,9.20
2018-08-30T18:08:47.966Z,8.33
2018-08-30T18:11:53.097Z,10.87
2018-08-30T18:14:58.086Z,10.37
2018-08-30T18:18:03.139Z,7.87
2018-08-30T18:21:08.050Z,7.97
2018-08-30T18:24:13.076Z,9.30
2018-08-30T18:27:18.083Z,7.87
2018-08-30T18:30:23.116Z,7.83
2018-08-30T18:33:28.149Z,7.90
2018-08-30T18:36:33.343Z,10.73
2018-08-30T18:39:38.326Z,8.10
2018-08-30T18:42:43.981Z,9.07
2018-08-30T18:45:49.456Z,10.07
2018-08-30T18:48:54.533Z,7.70
2018-08-30T18:51:59.483Z,7.53
2018-08-30T18:55:05.056Z,7.83
2018-08-30T18:58:10.063Z,9.60
2018-08-30T19:01:15.219Z,7.67
2018-08-30T19:04:20.236Z,9.13
2018-08-30T19:07:25.175Z,7.63
2018-08-30T19:10:30.217Z,7.43
2018-08-30T19:13:35.252Z,6.97
2018-08-30T19:16:45.302Z,7.63
2018-08-30T19:19:50.189Z,7.80
2018-08-30T19:22:55.247Z,9.37
2018-08-30T19:26:00.214Z,9.67
2018-08-30T19:29:05.183Z,10.80
2018-08-30T19:32:10.146Z,8.27
2018-08-30T19:35:20.022Z,8.50
2018-08-30T19:38:25.330Z,8.27
2018-08-30T19:41:30.417Z,8.53
2018-08-30T19:44:35.366Z,10.40
2018-08-30T19:47:40.370Z,10.17
2018-08-30T19:50:45.305Z,10.40
2018-08-30T19:53:50.672Z,9.17
2018-08-30T19:56:55.784Z,9.87
2018-08-30T20:00:00.937Z,9.70
2018-08-30T20:03:06.234Z,9.27
2018-08-30T20:06:11.125Z,10.77
2018-08-30T20:09:16.326Z,9.47
2018-08-30T20:12:21.298Z,9.60
2018-08-30T20:15:26.245Z,8.80
2018-08-30T20:18:31.265Z,9.50
2018-08-30T20:21:36.088Z,9.07
2018-08-30T20:24:41.309Z,8.43
2018-08-30T20:27:46.203Z,9.50
2018-08-30T20:30:51.143Z,12.77
2018-08-30T20:33:56.168Z,8.90
2018-08-30T20:37:01.293Z,12.77
2018-08-30T20:40:06.242Z,10.77
2018-08-30T20:43:11.343Z,9.30
2018-08-30T20:46:16.460Z,10.87
2018-08-30T20:49:21.588Z,8.57
2018-08-30T20:52:26.784Z,11.17
2018-08-30T20:55:31.735Z,8.90
2018-08-30T20:58:36.876Z,8.80
2018-08-30T21:01:41.812Z,9.07
2018-08-30T21:04:46.806Z,8.43
2018-08-30T21:07:52.780Z,9.97
2018-08-30T21:10:57.779Z,9.07
2018-08-30T21:14:03.809Z,7.93
2018-08-30T21:17:08.757Z,8.80
2018-08-30T21:20:13.659Z,10.10
2018-08-30T21:23:19.980Z,9.47
2018-08-30T21:26:24.942Z,9.07
2018-08-30T21:29:30.027Z,8.03
2018-08-30T21:32:35.013Z,8.23
2018-08-30T21:35:40.028Z,10.77
2018-08-30T21:38:45.305Z,7.27
2018-08-30T21:41:50.284Z,7.90
2018-08-30T21:44:55.208Z,8.43
2018-08-30T21:48:00.159Z,10.93
2018-08-30T21:51:05.132Z,8.20
2018-08-30T21:54:10.066Z,8.83
2018-08-30T21:57:14.988Z,9.47
2018-08-30T22:00:19.976Z,8.87
2018-08-30T22:03:24.922Z,9.33
2018-08-30T22:06:29.849Z,11.87
2018-08-30T22:09:35.005Z,9.20
2018-08-30T22:12:39.937Z,7.77
2018-08-30T22:15:44.940Z,8.93
2018-08-30T22:18:49.922Z,8.43
2018-08-30T22:21:54.883Z,8.30
2018-08-30T22:24:59.843Z,8.17
2018-08-30T22:28:05.100Z,8.93
2018-08-30T22:31:10.038Z,7.40
2018-08-30T22:34:15.262Z,8.43
2018-08-30T22:37:20.292Z,8.50
2018-08-30T22:40:25.319Z,8.50
2018-08-30T22:43:30.306Z,9.90
2018-08-30T22:46:35.251Z,9.13
2018-08-30T22:49:40.134Z,9.83
2018-08-30T22:52:45.126Z,8.60
2018-08-30T22:55:50.013Z,9.43
2018-08-30T22:58:55.062Z,9.53
2018-08-30T23:02:00.052Z,7.77
2018-08-30T23:05:05.103Z,7.37
2018-08-30T23:08:10.020Z,8.50
2018-08-30T23:11:14.950Z,7.83
2018-08-30T23:14:19.944Z,8.77
2018-08-30T23:17:25.010Z,9.13
2018-08-30T23:20:29.875Z,8.67
2018-08-30T23:23:34.791Z,9.33
2018-08-30T23:26:39.776Z,5.33
2018-08-30T23:29:44.722Z,8.17
2018-08-30T23:32:49.700Z,8.60
2018-08-30T23:35:54.586Z,5.53
2018-08-30T23:38:59.637Z,9.20
2018-08-30T23:42:04.626Z,7.20
2018-08-30T23:45:09.659Z,5.60
2018-08-30T23:48:14.606Z,7.70
2018-08-30T23:51:19.611Z,6.97
2018-08-30T23:54:24.589Z,6.33
2018-08-30T23:57:29.453Z,6.87
